createdAt,value
2018-05-04T00:01:42.057Z,62.20
2018-05-04T00:04:09.661Z,61.60
2018-05-04T00:06:37.212Z,61.60
2018-05-04T00:09:04.921Z,61.70
2018-05-04T00:11:33.242Z,61.60
2018-05-04T00:14:00.907Z,61.60
2018-05-04T00:16:28.577Z,61.80
2018-05-04T00:18:56.149Z,61.30
2018-05-04T00:21:23.768Z,62.00
2018-05-04T00:23:51.317Z,61.90
2018-05-04T00:26:19.056Z,62.10
2018-05-04T00:28:46.677Z,62.10
2018-05-04T00:31:14.235Z,62.00
2018-05-04T00:33:41.806Z,62.20
2018-05-04T00:36:09.355Z,62.00
2018-05-04T00:38:37.035Z,61.70
2018-05-04T00:41:04.596Z,61.70
2018-05-04T00:43:32.155Z,61.70
2018-05-04T00:45:59.746Z,61.70
2018-05-04T00:48:28.146Z,61.80
2018-05-04T00:50:55.738Z,61.70
2018-05-04T00:53:23.301Z,61.60
2018-05-04T00:55:50.861Z,61.80
2018-05-04T00:58:18.466Z,61.70
2018-05-04T01:00:46.799Z,61.90
2018-05-04T01:03:14.359Z,61.90
2018-05-04T01:05:42.079Z,61.60
2018-05-04T01:08:09.650Z,61.80
2018-05-04T01:10:37.244Z,62.10
2018-05-04T01:13:04.809Z,61.20
2018-05-04T01:15:32.417Z,60.90
2018-05-04T01:18:00.733Z,61.10
2018-05-04T01:20:28.302Z,61.10
2018-05-04T01:22:55.883Z,60.90
2018-05-04T01:25:23.447Z,61.00
2018-05-04T01:27:51.061Z,61.00
2018-05-04T01:30:18.645Z,61.10
2018-05-04T01:32:46.222Z,61.20
2018-05-04T01:35:13.876Z,61.30
2018-05-04T01:37:41.431Z,61.20
2018-05-04T01:40:09.005Z,61.10
2018-05-04T01:42:36.565Z,60.80
2018-05-04T01:45:04.173Z,61.20
2018-05-04T01:47:31.826Z,61.10
2018-05-04T01:49:59.390Z,61.20
2018-05-04T01:52:27.006Z,61.30
2018-05-04T01:54:54.607Z,61.10
2018-05-04T01:57:22.944Z,60.90
2018-05-04T01:59:50.564Z,60.80
2018-05-04T02:02:18.220Z,60.80
2018-05-04T02:04:45.801Z,60.90
2018-05-04T02:07:13.372Z,60.70
2018-05-04T02:09:41.029Z,60.80
2018-05-04T02:12:08.689Z,60.90
2018-05-04T02:14:36.267Z,60.90
2018-05-04T02:17:03.934Z,61.30
2018-05-04T02:19:31.537Z,61.30
2018-05-04T02:21:59.447Z,61.30
2018-05-04T02:24:27.989Z,61.20
2018-05-04T02:26:55.553Z,61.30
2018-05-04T02:29:24.068Z,60.80
2018-05-04T02:31:51.653Z,60.50
2018-05-04T02:34:19.277Z,60.40
2018-05-04T02:36:46.841Z,60.50
2018-05-04T02:39:14.461Z,60.50
2018-05-04T02:41:42.988Z,60.80
2018-05-04T02:44:10.554Z,60.00
2018-05-04T02:46:38.143Z,60.20
2018-05-04T02:49:05.751Z,60.10
2018-05-04T02:51:33.355Z,60.30
2018-05-04T02:54:00.916Z,60.20
2018-05-04T02:56:28.917Z,60.50
2018-05-04T02:58:56.490Z,59.80
2018-05-04T03:01:24.100Z,60.90
2018-05-04T03:03:51.713Z,61.10
2018-05-04T03:06:19.268Z,61.10
2018-05-04T03:08:46.881Z,61.10
2018-05-04T03:11:14.487Z,61.20
2018-05-04T03:13:42.460Z,61.20
2018-05-04T03:16:10.056Z,60.80
2018-05-04T03:18:37.745Z,60.50
2018-05-04T03:21:05.355Z,60.60
2018-05-04T03:23:32.898Z,60.80
2018-05-04T03:26:01.209Z,60.70
2018-05-04T03:28:28.795Z,60.70
2018-05-04T03:30:57.285Z,60.80
2018-05-04T03:33:24.890Z,61.10
2018-05-04T03:35:52.481Z,61.40
2018-05-04T03:38:20.101Z,61.30
2018-05-04T03:40:48.619Z,61.40
2018-05-04T03:43:16.203Z,61.40
2018-05-04T03:45:43.845Z,61.20
2018-05-04T03:48:11.421Z,61.30
2018-05-04T03:50:39.191Z,61.30
2018-05-04T03:53:06.756Z,61.40
2018-05-04T03:55:34.366Z,61.40
2018-05-04T03:58:13.877Z,61.30
2018-05-04T04:00:53.975Z,61.70
2018-05-04T04:03:33.237Z,61.70
2018-05-04T04:06:00.883Z,62.60
2018-05-04T04:08:28.447Z,62.70
2018-05-04T04:10:56.031Z,62.80
2018-05-04T04:13:23.613Z,63.10
2018-05-04T04:15:52.019Z,63.60
2018-05-04T04:18:19.581Z,63.70
2018-05-04T04:20:47.155Z,63.50
2018-05-04T04:23:14.760Z,63.50
2018-05-04T04:25:42.336Z,63.30
2018-05-04T04:28:10.755Z,63.00
2018-05-04T04:30:39.063Z,63.00
2018-05-04T04:33:06.711Z,62.90
2018-05-04T04:35:35.231Z,63.00
2018-05-04T04:38:03.860Z,63.10
2018-05-04T04:40:31.418Z,63.10
2018-05-04T04:42:59.027Z,63.10
2018-05-04T04:45:26.641Z,63.20
2018-05-04T04:47:54.232Z,63.40
2018-05-04T04:50:21.822Z,63.50
2018-05-04T04:52:49.373Z,63.30
2018-05-04T04:55:17.711Z,63.50
2018-05-04T04:57:45.367Z,63.50
2018-05-04T05:00:12.945Z,63.70
2018-05-04T05:02:40.581Z,63.90
2018-05-04T05:05:08.160Z,63.90
2018-05-04T05:07:35.823Z,64.40
2018-05-04T05:10:03.454Z,64.30
2018-05-04T05:12:31.069Z,64.90
2018-05-04T05:14:59.517Z,65.40
2018-05-04T05:17:27.090Z,65.20
2018-05-04T05:19:57.062Z,64.90
2018-05-04T05:22:24.672Z,65.10
2018-05-04T05:24:52.321Z,65.70
2018-05-04T05:27:19.907Z,65.60
2018-05-04T05:29:48.269Z,66.40
2018-05-04T05:32:15.933Z,66.50
2018-05-04T05:34:43.485Z,67.00
2018-05-04T05:37:11.545Z,67.50
2018-05-04T05:39:39.127Z,68.10
2018-05-04T05:42:06.741Z,68.30
2018-05-04T05:44:34.389Z,68.10
2018-05-04T05:47:02.005Z,68.20
2018-05-04T05:49:29.981Z,68.30
2018-05-04T05:51:57.581Z,68.30
2018-05-04T05:54:26.222Z,67.90
2018-05-04T05:56:53.842Z,67.50
2018-05-04T05:59:21.423Z,66.80
2018-05-04T06:01:49.163Z,66.30
2018-05-04T06:04:16.717Z,66.00
2018-05-04T06:06:44.565Z,65.80
2018-05-04T06:09:12.217Z,65.40
2018-05-04T06:11:39.807Z,65.40
2018-05-04T06:14:09.511Z,65.40
2018-05-04T06:16:37.188Z,64.80
2018-05-04T06:19:04.777Z,64.80
2018-05-04T06:21:32.366Z,64.60
2018-05-04T06:24:00.741Z,64.40
2018-05-04T06:26:29.127Z,64.40
2018-05-04T06:28:56.783Z,64.40
2018-05-04T06:31:25.172Z,64.00
2018-05-04T06:33:53.544Z,63.70
2018-05-04T06:36:21.947Z,63.80
2018-05-04T06:38:51.628Z,63.80
2018-05-04T06:41:19.471Z,63.80
2018-05-04T06:43:47.082Z,63.50
2018-05-04T06:46:14.706Z,63.80
2018-05-04T06:48:42.455Z,63.80
2018-05-04T06:51:10.213Z,63.40
2018-05-04T06:53:37.791Z,63.10
2018-05-04T06:56:06.307Z,62.90
2018-05-04T06:58:33.933Z,63.10
2018-05-04T07:01:01.651Z,62.90
2018-05-04T07:03:29.274Z,62.20
2018-05-04T07:05:56.849Z,62.90
2018-05-04T07:08:25.248Z,62.40
2018-05-04T07:10:52.834Z,62.40
2018-05-04T07:13:20.589Z,62.70
2018-05-04T07:15:48.337Z,62.10
2018-05-04T07:18:15.941Z,61.60
2018-05-04T07:20:43.559Z,61.40
2018-05-04T07:23:11.172Z,62.30
2018-05-04T07:25:38.821Z,61.30
2018-05-04T07:28:06.429Z,61.50
2018-05-04T07:30:34.015Z,61.90
2018-05-04T07:33:02.511Z,62.50
2018-05-04T07:35:30.137Z,61.70
2018-05-04T07:37:57.713Z,61.40
2018-05-04T07:40:25.317Z,61.50
2018-05-04T07:42:52.961Z,61.40
2018-05-04T07:45:20.551Z,61.20
2018-05-04T07:47:48.193Z,60.80
2018-05-04T07:50:15.779Z,61.40
2018-05-04T07:52:43.361Z,61.20
2018-05-04T07:55:10.984Z,61.50
2018-05-04T07:57:38.584Z,62.10
2018-05-04T08:00:06.193Z,61.20
2018-05-04T08:02:33.847Z,60.80
2018-05-04T08:05:01.416Z,60.40
2018-05-04T08:07:29.087Z,60.20
2018-05-04T08:09:56.717Z,59.80
2018-05-04T08:12:24.387Z,59.80
2018-05-04T08:14:52.082Z,60.10
2018-05-04T08:17:19.714Z,60.70
2018-05-04T08:19:47.320Z,61.40
2018-05-04T08:22:14.971Z,61.40
2018-05-04T08:24:42.603Z,61.60
2018-05-04T08:27:10.388Z,61.30
2018-05-04T08:29:37.978Z,61.80
2018-05-04T08:32:06.382Z,61.90
2018-05-04T08:34:34.018Z,61.80
2018-05-04T08:37:01.567Z,62.00
2018-05-04T08:39:29.908Z,62.00
2018-05-04T08:41:57.526Z,62.00
2018-05-04T08:44:26.152Z,61.50
2018-05-04T08:46:53.838Z,61.70
2018-05-04T08:49:21.377Z,62.00
2018-05-04T08:51:49.061Z,62.10
2018-05-04T08:54:18.723Z,62.40
2018-05-04T08:56:46.295Z,62.40
2018-05-04T08:59:13.877Z,62.40
2018-05-04T09:01:41.551Z,62.50
2018-05-04T09:04:09.213Z,62.60
2018-05-04T09:06:36.815Z,62.90
2018-05-04T09:09:04.433Z,63.30
2018-05-04T09:11:37.934Z,63.70
2018-05-04T09:14:06.446Z,63.50
2018-05-04T09:16:35.069Z,63.60
2018-05-04T09:19:02.697Z,63.70
2018-05-04T09:21:30.314Z,63.70
2018-05-04T09:23:58.872Z,63.90
2018-05-04T09:26:26.435Z,64.40
2018-05-04T09:28:55.046Z,64.70
2018-05-04T09:31:22.691Z,65.10
2018-05-04T09:33:50.321Z,65.30
2018-05-04T09:36:17.983Z,65.90
2018-05-04T09:38:46.593Z,66.20
2018-05-04T09:41:14.303Z,65.90
2018-05-04T09:43:42.769Z,66.90
2018-05-04T09:46:10.412Z,66.80
2018-05-04T09:48:37.990Z,67.30
2018-05-04T09:51:05.754Z,67.00
2018-05-04T09:53:33.349Z,66.80
2018-05-04T09:56:01.147Z,66.50
2018-05-04T09:58:29.687Z,65.50
2018-05-04T10:00:57.301Z,66.00
2018-05-04T10:03:25.808Z,66.50
2018-05-04T10:05:59.283Z,66.60
2018-05-04T10:08:26.933Z,67.00
2018-05-04T10:10:56.572Z,67.60
2018-05-04T10:13:25.066Z,68.10
2018-05-04T10:15:52.680Z,68.40
2018-05-04T10:18:21.225Z,68.60
2018-05-04T10:20:48.825Z,68.80
2018-05-04T10:23:16.452Z,69.10
2018-05-04T10:25:46.766Z,69.20
2018-05-04T10:28:14.604Z,69.20
2018-05-04T10:30:43.245Z,69.60
2018-05-04T10:33:10.859Z,69.70
2018-05-04T10:35:39.529Z,69.50
2018-05-04T10:38:07.309Z,69.90
2018-05-04T10:40:35.851Z,69.90
2018-05-04T10:43:03.797Z,69.40
2018-05-04T10:45:31.383Z,69.30
2018-05-04T10:47:59.171Z,68.30
2018-05-04T10:50:26.777Z,68.50
2018-05-04T10:52:54.385Z,68.00
2018-05-04T10:55:22.127Z,68.10
2018-05-04T10:57:49.727Z,67.80
2018-05-04T11:00:17.388Z,67.90
2018-05-04T11:02:45.026Z,67.30
2018-05-04T11:05:13.505Z,67.30
2018-05-04T11:07:41.084Z,67.40
2018-05-04T11:10:08.724Z,68.10
2018-05-04T11:12:36.404Z,68.00
2018-05-04T11:15:04.175Z,68.70
2018-05-04T11:17:31.990Z,68.50
2018-05-04T11:19:59.590Z,68.60
2018-05-04T11:22:27.311Z,68.50
2018-05-04T11:24:55.725Z,67.80
2018-05-04T11:27:23.481Z,67.70
2018-05-04T11:29:51.213Z,67.90
2018-05-04T11:32:18.832Z,67.20
2018-05-04T11:34:46.467Z,67.20
2018-05-04T11:37:14.059Z,66.40
2018-05-04T11:39:41.669Z,66.10
2018-05-04T11:42:09.364Z,65.90
2018-05-04T11:44:36.976Z,66.30
2018-05-04T11:47:04.694Z,66.10
2018-05-04T11:49:32.440Z,65.90
2018-05-04T11:52:00.037Z,67.20
2018-05-04T11:54:27.705Z,66.90
2018-05-04T11:56:55.292Z,66.80
2018-05-04T11:59:22.895Z,65.80
2018-05-04T12:01:50.605Z,65.80
2018-05-04T12:04:19.052Z,65.50
2018-05-04T12:06:46.707Z,65.40
2018-05-04T12:09:14.350Z,65.40
2018-05-04T12:11:41.942Z,66.20
2018-05-04T12:14:09.604Z,66.60
2018-05-04T12:16:37.268Z,66.50
2018-05-04T12:19:05.124Z,66.90
2018-05-04T12:21:32.999Z,67.00
2018-05-04T12:24:00.701Z,67.10
2018-05-04T12:26:28.794Z,66.70
2018-05-04T12:28:56.651Z,66.40
2018-05-04T12:31:24.279Z,66.90
2018-05-04T12:33:53.059Z,66.40
2018-05-04T12:36:20.679Z,65.70
2018-05-04T12:38:48.297Z,65.50
2018-05-04T12:41:15.910Z,65.90
2018-05-04T12:43:43.541Z,65.70
2018-05-04T12:46:11.091Z,65.80
2018-05-04T12:48:39.809Z,65.60
2018-05-04T12:51:07.406Z,65.60
2018-05-04T12:53:35.082Z,65.70
2018-05-04T12:56:02.717Z,65.90
2018-05-04T12:58:30.403Z,65.60
2018-05-04T13:00:58.039Z,64.60
2018-05-04T13:03:25.699Z,63.80
2018-05-04T13:05:53.513Z,64.00
2018-05-04T13:08:21.237Z,63.60
2018-05-04T13:10:48.906Z,64.20
2018-05-04T13:13:17.383Z,64.70
2018-05-04T13:15:45.009Z,64.50
2018-05-04T13:18:12.675Z,63.50
2018-05-04T13:20:40.340Z,62.90
2018-05-04T13:23:07.990Z,62.30
2018-05-04T13:25:35.618Z,62.50
2018-05-04T13:28:03.298Z,62.60
2018-05-04T13:30:30.857Z,62.30
2018-05-04T13:32:58.571Z,61.80
2018-05-04T13:35:26.924Z,61.90
2018-05-04T13:37:54.564Z,61.80
2018-05-04T13:40:22.261Z,60.90
2018-05-04T13:42:49.865Z,61.20
2018-05-04T13:45:17.432Z,62.20
2018-05-04T13:47:45.044Z,61.50
2018-05-04T13:50:12.702Z,61.90
2018-05-04T13:52:41.204Z,62.50
2018-05-04T13:55:08.868Z,63.40
2018-05-04T13:57:36.534Z,63.40
2018-05-04T14:00:04.180Z,63.30
2018-05-04T14:02:31.959Z,63.50
2018-05-04T14:04:59.594Z,64.00
2018-05-04T14:07:27.182Z,64.20
2018-05-04T14:09:55.545Z,64.00
2018-05-04T14:12:23.213Z,64.00
2018-05-04T14:14:50.867Z,63.50
2018-05-04T14:17:18.544Z,62.80
2018-05-04T14:19:46.580Z,63.10
2018-05-04T14:22:14.198Z,62.80
2018-05-04T14:24:41.799Z,61.80
2018-05-04T14:27:09.435Z,62.20
2018-05-04T14:29:37.142Z,62.70
2018-05-04T14:32:04.823Z,62.30
2018-05-04T14:34:32.451Z,62.60
2018-05-04T14:37:00.051Z,62.10
2018-05-04T14:39:28.384Z,63.00
2018-05-04T14:41:56.017Z,63.00
2018-05-04T14:44:23.694Z,63.30
2018-05-04T14:46:51.382Z,62.70
2018-05-04T14:49:19.068Z,62.70
2018-05-04T14:51:46.701Z,63.50
2018-05-04T14:54:14.435Z,63.20
2018-05-04T14:56:41.981Z,63.20
2018-05-04T14:59:09.713Z,62.90
2018-05-04T15:01:37.286Z,61.70
2018-05-04T15:04:05.805Z,61.50
2018-05-04T15:06:33.349Z,61.50
2018-05-04T15:09:00.964Z,61.50
2018-05-04T15:11:28.626Z,61.80
2018-05-04T15:13:56.230Z,61.70
2018-05-04T15:16:23.916Z,61.80
2018-05-04T15:18:51.611Z,61.60
2018-05-04T15:21:19.531Z,61.80
2018-05-04T15:23:47.126Z,62.10
2018-05-04T15:26:14.829Z,62.10
2018-05-04T15:28:43.239Z,61.90
2018-05-04T15:31:10.799Z,61.90
2018-05-04T15:33:38.444Z,61.50
2018-05-04T15:36:06.078Z,61.70
2018-05-04T15:38:33.780Z,61.70
2018-05-04T15:41:01.393Z,61.60
2018-05-04T15:43:29.000Z,61.70
2018-05-04T15:45:56.623Z,62.20
2018-05-04T15:48:30.033Z,61.90
2018-05-04T15:51:03.327Z,61.70
2018-05-04T15:53:31.077Z,62.10
2018-05-04T15:55:59.118Z,61.40
2018-05-04T15:58:26.794Z,61.50
2018-05-04T16:00:54.566Z,61.50
2018-05-04T16:03:22.222Z,61.20
2018-05-04T16:05:49.897Z,60.70
2018-05-04T16:08:17.604Z,60.30
2018-05-04T16:10:45.210Z,60.40
2018-05-04T16:13:12.813Z,60.40
2018-05-04T16:15:40.541Z,60.80
2018-05-04T16:18:08.199Z,61.00
2018-05-04T16:20:35.840Z,61.00
2018-05-04T16:23:03.487Z,61.00
2018-05-04T16:25:31.101Z,60.90
2018-05-04T16:27:59.451Z,61.20
2018-05-04T16:30:27.120Z,61.20
2018-05-04T16:32:54.717Z,60.40
2018-05-04T16:35:22.373Z,60.00
2018-05-04T16:37:50.126Z,59.80
2018-05-04T16:40:17.734Z,60.00
2018-05-04T16:42:45.315Z,60.20
2018-05-04T16:45:14.035Z,60.40
2018-05-04T16:47:47.873Z,60.50
2018-05-04T16:50:15.493Z,60.50
2018-05-04T16:52:43.052Z,60.80
2018-05-04T16:55:10.705Z,60.70
2018-05-04T16:57:38.366Z,60.70
2018-05-04T17:00:06.063Z,60.60
2018-05-04T17:02:34.513Z,61.00
2018-05-04T17:05:02.183Z,61.00
2018-05-04T17:07:29.936Z,60.90
2018-05-04T17:09:57.772Z,61.40
2018-05-04T17:12:25.525Z,61.50
2018-05-04T17:14:53.255Z,61.60
2018-05-04T17:17:20.984Z,61.70
2018-05-04T17:19:48.712Z,61.90
2018-05-04T17:22:16.424Z,61.70
2018-05-04T17:24:43.960Z,62.20
2018-05-04T17:27:11.573Z,62.20
2018-05-04T17:29:39.931Z,62.20
2018-05-04T17:32:07.598Z,62.20
2018-05-04T17:34:35.263Z,62.30
2018-05-04T17:37:03.031Z,62.40
2018-05-04T17:39:30.718Z,62.30
2018-05-04T17:41:58.314Z,62.10
2018-05-04T17:44:26.002Z,62.20
2018-05-04T17:46:53.646Z,62.50
2018-05-04T17:49:21.317Z,62.90
2018-05-04T17:51:48.892Z,63.00
2018-05-04T17:54:16.525Z,62.70
2018-05-04T17:56:44.147Z,62.40
2018-05-04T17:59:12.520Z,62.80
2018-05-04T18:01:40.970Z,62.90
2018-05-04T18:04:08.628Z,62.90
2018-05-04T18:06:37.356Z,63.10
2018-05-04T18:09:05.901Z,63.50
2018-05-04T18:11:33.548Z,63.90
2018-05-04T18:14:01.110Z,64.00
2018-05-04T18:16:28.732Z,64.10
2018-05-04T18:18:56.319Z,64.00
2018-05-04T18:21:23.986Z,64.20
2018-05-04T18:23:51.706Z,64.10
2018-05-04T18:26:19.369Z,64.20
2018-05-04T18:28:47.033Z,64.10
2018-05-04T18:31:14.670Z,64.50
2018-05-04T18:33:42.279Z,64.90
2018-05-04T18:36:09.862Z,65.10
2018-05-04T18:38:37.540Z,65.00
2018-05-04T18:41:05.190Z,64.70
2018-05-04T18:43:32.904Z,64.30
2018-05-04T18:46:01.036Z,64.40
2018-05-04T18:48:28.637Z,64.30
2018-05-04T18:50:56.272Z,64.70
2018-05-04T18:53:24.633Z,65.00
2018-05-04T18:55:52.341Z,65.00
2018-05-04T18:58:19.944Z,65.20
2018-05-04T19:00:47.564Z,65.30
2018-05-04T19:03:21.717Z,65.30
2018-05-04T19:05:49.334Z,65.90
2018-05-04T19:08:16.953Z,65.20
2018-05-04T19:10:44.604Z,65.20
2018-05-04T19:13:12.262Z,65.60
2018-05-04T19:15:39.912Z,65.50
2018-05-04T19:18:07.614Z,65.40
2018-05-04T19:20:35.358Z,65.10
2018-05-04T19:23:03.747Z,64.90
2018-05-04T19:25:31.388Z,64.90
2018-05-04T19:27:59.000Z,64.90
2018-05-04T19:30:27.342Z,64.90
2018-05-04T19:32:54.969Z,64.90
2018-05-04T19:35:22.763Z,64.80
2018-05-04T19:37:50.371Z,65.20
2018-05-04T19:40:17.983Z,65.30
2018-05-04T19:42:45.677Z,65.20
2018-05-04T19:45:13.270Z,65.00
2018-05-04T19:47:40.823Z,64.80
2018-05-04T19:50:08.431Z,64.60
2018-05-04T19:52:36.025Z,64.50
2018-05-04T19:55:03.679Z,64.80
2018-05-04T19:57:31.303Z,64.90
2018-05-04T19:59:58.993Z,64.50
2018-05-04T20:02:26.654Z,65.10
2018-05-04T20:04:54.329Z,65.00
2018-05-04T20:07:22.695Z,65.70
2018-05-04T20:09:50.290Z,65.80
2018-05-04T20:12:17.947Z,65.50
2018-05-04T20:14:45.521Z,65.50
2018-05-04T20:17:13.189Z,65.30
2018-05-04T20:19:40.786Z,65.10
2018-05-04T20:22:08.857Z,64.90
2018-05-04T20:24:36.487Z,64.60
2018-05-04T20:27:04.303Z,64.80
2018-05-04T20:29:31.947Z,65.00
2018-05-04T20:31:59.529Z,64.70
2018-05-04T20:34:27.195Z,65.00
2018-05-04T20:36:54.891Z,65.70
2018-05-04T20:39:22.501Z,65.10
2018-05-04T20:41:50.144Z,64.90
2018-05-04T20:44:17.908Z,65.10
2018-05-04T20:46:45.533Z,64.90
2018-05-04T20:49:13.240Z,65.00
2018-05-04T20:51:40.827Z,65.60
2018-05-04T20:54:08.442Z,66.10
2018-05-04T20:56:36.037Z,66.10
2018-05-04T20:59:03.595Z,65.70
2018-05-04T21:01:31.278Z,65.90
2018-05-04T21:03:59.602Z,65.90
2018-05-04T21:06:27.249Z,65.80
2018-05-04T21:08:54.855Z,65.70
2018-05-04T21:11:22.549Z,65.60
2018-05-04T21:13:50.231Z,65.70
2018-05-04T21:16:17.830Z,65.80
2018-05-04T21:18:45.424Z,65.80
2018-05-04T21:21:13.803Z,66.60
2018-05-04T21:23:41.394Z,66.50
2018-05-04T21:26:09.007Z,66.60
2018-05-04T21:28:36.609Z,66.90
2018-05-04T21:31:04.208Z,67.20
2018-05-04T21:33:31.773Z,67.30
2018-05-04T21:35:59.439Z,67.50
2018-05-04T21:38:27.040Z,67.50
2018-05-04T21:40:54.572Z,67.70
2018-05-04T21:43:22.191Z,68.00
2018-05-04T21:45:49.732Z,68.30
2018-05-04T21:48:17.367Z,67.80
2018-05-04T21:50:44.964Z,67.50
2018-05-04T21:53:12.543Z,67.40
2018-05-04T21:55:40.420Z,67.20
2018-05-04T21:58:08.005Z,66.90
2018-05-04T22:00:35.549Z,67.50
2018-05-04T22:03:03.987Z,67.90
2018-05-04T22:05:31.625Z,67.70
2018-05-04T22:07:59.241Z,67.70
2018-05-04T22:10:26.830Z,67.90
2018-05-04T22:12:54.459Z,67.80
2018-05-04T22:15:22.092Z,68.20
2018-05-04T22:17:49.745Z,67.90
2018-05-04T22:20:17.446Z,68.00
2018-05-04T22:22:45.094Z,67.80
2018-05-04T22:25:12.683Z,67.40
2018-05-04T22:27:40.258Z,67.30
2018-05-04T22:30:07.897Z,67.40
2018-05-04T22:32:35.552Z,67.40
2018-05-04T22:35:03.853Z,67.30
2018-05-04T22:37:31.463Z,67.30
2018-05-04T22:39:59.124Z,67.50
2018-05-04T22:42:26.763Z,67.50
2018-05-04T22:44:55.248Z,67.40
2018-05-04T22:47:23.599Z,67.30
2018-05-04T22:49:51.269Z,67.20
2018-05-04T22:52:18.881Z,67.80
2018-05-04T22:54:46.430Z,67.80
2018-05-04T22:57:14.032Z,68.00
2018-05-04T22:59:41.649Z,67.90
2018-05-04T23:02:09.250Z,67.70
2018-05-04T23:04:36.833Z,68.10
2018-05-04T23:07:05.098Z,68.00
2018-05-04T23:09:32.655Z,67.60
2018-05-04T23:12:00.237Z,68.30
2018-05-04T23:14:27.803Z,68.30
2018-05-04T23:16:55.404Z,68.20
2018-05-04T23:19:23.023Z,68.20
2018-05-04T23:21:50.604Z,68.00
2018-05-04T23:24:18.219Z,67.80
2018-05-04T23:26:45.779Z,67.50
2018-05-04T23:29:13.446Z,67.40
2018-05-04T23:31:41.007Z,67.10
2018-05-04T23:34:08.601Z,66.80
2018-05-04T23:36:36.942Z,66.10
2018-05-04T23:39:04.642Z,66.00
2018-05-04T23:41:32.205Z,66.10
2018-05-04T23:43:59.817Z,66.00
2018-05-04T23:46:27.378Z,66.20
2018-05-04T23:48:54.919Z,66.20
2018-05-04T23:51:22.546Z,65.50
2018-05-04T23:53:50.887Z,65.30
2018-05-04T23:56:18.478Z,65.30
2018-05-04T23:58:46.083Z,65.10
